sensor_id;sensor_type;location;lat;lon;timestamp;P1;durP1;ratioP1;P2;durP2;ratioP2
53879;SDS011;39791;53.184;5.486;2022-09-09T00:00:28;19.83;;;6.93;;
53879;SDS011;39791;53.184;5.486;2022-09-09T00:05:29;11.35;;;7.28;;
53879;SDS011;39791;53.184;5.486;2022-09-09T00:08:03;14.63;;;7.82;;
53879;SDS011;39791;53.184;5.486;2022-09-09T00:10:37;9.23;;;7.85;;
53879;SDS011;39791;53.184;5.486;2022-09-09T00:19:05;15.82;;;8.45;;
53879;SDS011;39791;53.184;5.486;2022-09-09T00:21:39;14.32;;;8.20;;
53879;SDS011;39791;53.184;5.486;2022-09-09T00:24:23;16.73;;;9.40;;
53879;SDS011;39791;53.184;5.486;2022-09-09T00:26:53;17.73;;;9.68;;
53879;SDS011;39791;53.184;5.486;2022-09-09T00:29:28;17.13;;;9.35;;
53879;SDS011;39791;53.184;5.486;2022-09-09T00:32:14;19.15;;;10.00;;
53879;SDS011;39791;53.184;5.486;2022-09-09T00:35:02;18.45;;;8.98;;
53879;SDS011;39791;53.184;5.486;2022-09-09T00:37:40;14.25;;;8.98;;
53879;SDS011;39791;53.184;5.486;2022-09-09T00:40:15;13.85;;;8.48;;
53879;SDS011;39791;53.184;5.486;2022-09-09T00:42:47;15.85;;;9.70;;
53879;SDS011;39791;53.184;5.486;2022-09-09T00:48:10;15.73;;;9.32;;
53879;SDS011;39791;53.184;5.486;2022-09-09T00:53:20;16.60;;;9.68;;
53879;SDS011;39791;53.184;5.486;2022-09-09T00:56:12;14.20;;;8.60;;
53879;SDS011;39791;53.184;5.486;2022-09-09T00:58:53;15.35;;;9.20;;
53879;SDS011;39791;53.184;5.486;2022-09-09T01:01:44;13.40;;;8.40;;
53879;SDS011;39791;53.184;5.486;2022-09-09T01:04:14;12.77;;;8.98;;
53879;SDS011;39791;53.184;5.486;2022-09-09T01:06:45;16.15;;;8.38;;
53879;SDS011;39791;53.184;5.486;2022-09-09T01:12:09;15.48;;;9.70;;
53879;SDS011;39791;53.184;5.486;2022-09-09T01:14:54;20.92;;;10.18;;
53879;SDS011;39791;53.184;5.486;2022-09-09T01:17:34;16.27;;;9.40;;
53879;SDS011;39791;53.184;5.486;2022-09-09T01:23:10;21.75;;;10.80;;
53879;SDS011;39791;53.184;5.486;2022-09-09T01:28:40;13.90;;;9.00;;
53879;SDS011;39791;53.184;5.486;2022-09-09T01:31:07;14.15;;;9.10;;
53879;SDS011;39791;53.184;5.486;2022-09-09T01:33:36;14.00;;;9.57;;
53879;SDS011;39791;53.184;5.486;2022-09-09T01:38:31;12.57;;;8.80;;
53879;SDS011;39791;53.184;5.486;2022-09-09T01:40:58;21.58;;;9.45;;
53879;SDS011;39791;53.184;5.486;2022-09-09T01:43:24;19.02;;;9.43;;
53879;SDS011;39791;53.184;5.486;2022-09-09T01:45:52;16.88;;;8.80;;
53879;SDS011;39791;53.184;5.486;2022-09-09T01:48:19;14.32;;;9.15;;
53879;SDS011;39791;53.184;5.486;2022-09-09T01:50:47;14.35;;;9.18;;
53879;SDS011;39791;53.184;5.486;2022-09-09T01:53:13;11.73;;;8.10;;
53879;SDS011;39791;53.184;5.486;2022-09-09T01:55:42;12.60;;;8.48;;
53879;SDS011;39791;53.184;5.486;2022-09-09T01:58:49;18.90;;;8.55;;
53879;SDS011;39791;53.184;5.486;2022-09-09T02:04:34;15.23;;;8.93;;
53879;SDS011;39791;53.184;5.486;2022-09-09T02:07:01;15.88;;;9.98;;
53879;SDS011;39791;53.184;5.486;2022-09-09T02:09:27;19.83;;;10.38;;
53879;SDS011;39791;53.184;5.486;2022-09-09T02:14:43;19.17;;;10.63;;
53879;SDS011;39791;53.184;5.486;2022-09-09T02:17:16;16.40;;;10.25;;
53879;SDS011;39791;53.184;5.486;2022-09-09T02:19:51;15.85;;;10.23;;
53879;SDS011;39791;53.184;5.486;2022-09-09T02:22:22;21.58;;;10.70;;
53879;SDS011;39791;53.184;5.486;2022-09-09T02:24:51;20.38;;;11.05;;
53879;SDS011;39791;53.184;5.486;2022-09-09T02:27:21;19.40;;;11.00;;
53879;SDS011;39791;53.184;5.486;2022-09-09T02:29:47;17.92;;;10.77;;
53879;SDS011;39791;53.184;5.486;2022-09-09T02:32:17;18.38;;;10.20;;
53879;SDS011;39791;53.184;5.486;2022-09-09T02:34:47;16.40;;;9.55;;
53879;SDS011;39791;53.184;5.486;2022-09-09T02:37:17;16.08;;;10.60;;
53879;SDS011;39791;53.184;5.486;2022-09-09T02:39:45;16.27;;;9.55;;
53879;SDS011;39791;53.184;5.486;2022-09-09T02:42:11;17.90;;;9.38;;
53879;SDS011;39791;53.184;5.486;2022-09-09T02:44:39;15.90;;;10.18;;
53879;SDS011;39791;53.184;5.486;2022-09-09T02:47:07;19.63;;;12.02;;
53879;SDS011;39791;53.184;5.486;2022-09-09T02:52:23;15.65;;;10.80;;
53879;SDS011;39791;53.184;5.486;2022-09-09T02:54:56;18.98;;;10.65;;
53879;SDS011;39791;53.184;5.486;2022-09-09T02:57:29;13.70;;;10.35;;
53879;SDS011;39791;53.184;5.486;2022-09-09T02:59:57;11.77;;;8.68;;
53879;SDS011;39791;53.184;5.486;2022-09-09T03:02:23;14.52;;;8.73;;
53879;SDS011;39791;53.184;5.486;2022-09-09T03:04:50;13.57;;;8.30;;
53879;SDS011;39791;53.184;5.486;2022-09-09T03:07:17;16.58;;;8.25;;
53879;SDS011;39791;53.184;5.486;2022-09-09T03:09:44;14.15;;;8.68;;
53879;SDS011;39791;53.184;5.486;2022-09-09T03:12:10;12.93;;;7.18;;
53879;SDS011;39791;53.184;5.486;2022-09-09T03:14:36;15.10;;;7.50;;
53879;SDS011;39791;53.184;5.486;2022-09-09T03:17:03;9.18;;;7.45;;
53879;SDS011;39791;53.184;5.486;2022-09-09T03:19:29;12.85;;;6.88;;
53879;SDS011;39791;53.184;5.486;2022-09-09T03:21:55;14.00;;;7.38;;
53879;SDS011;39791;53.184;5.486;2022-09-09T03:24:20;9.20;;;6.35;;
53879;SDS011;39791;53.184;5.486;2022-09-09T03:26:47;9.75;;;6.85;;
53879;SDS011;39791;53.184;5.486;2022-09-09T03:29:13;12.27;;;6.72;;
53879;SDS011;39791;53.184;5.486;2022-09-09T03:31:40;10.15;;;7.45;;
53879;SDS011;39791;53.184;5.486;2022-09-09T03:34:05;10.68;;;7.57;;
53879;SDS011;39791;53.184;5.486;2022-09-09T03:36:32;11.25;;;7.97;;
53879;SDS011;39791;53.184;5.486;2022-09-09T03:38:57;10.75;;;7.63;;
53879;SDS011;39791;53.184;5.486;2022-09-09T03:41:24;11.13;;;7.90;;
53879;SDS011;39791;53.184;5.486;2022-09-09T03:43:51;10.90;;;7.40;;
53879;SDS011;39791;53.184;5.486;2022-09-09T03:46:17;12.95;;;7.03;;
53879;SDS011;39791;53.184;5.486;2022-09-09T03:48:43;12.48;;;8.70;;
53879;SDS011;39791;53.184;5.486;2022-09-09T03:51:09;17.00;;;8.10;;
53879;SDS011;39791;53.184;5.486;2022-09-09T03:53:35;12.25;;;7.85;;
53879;SDS011;39791;53.184;5.486;2022-09-09T03:56:02;13.43;;;8.48;;
53879;SDS011;39791;53.184;5.486;2022-09-09T03:58:29;15.27;;;7.93;;
53879;SDS011;39791;53.184;5.486;2022-09-09T04:00:55;15.77;;;8.73;;
53879;SDS011;39791;53.184;5.486;2022-09-09T04:03:23;14.98;;;8.70;;
53879;SDS011;39791;53.184;5.486;2022-09-09T04:05:50;16.58;;;9.15;;
53879;SDS011;39791;53.184;5.486;2022-09-09T04:08:16;15.43;;;9.05;;
53879;SDS011;39791;53.184;5.486;2022-09-09T04:10:47;17.85;;;9.77;;
53879;SDS011;39791;53.184;5.486;2022-09-09T04:13:13;16.58;;;9.57;;
53879;SDS011;39791;53.184;5.486;2022-09-09T04:15:43;20.33;;;9.15;;
53879;SDS011;39791;53.184;5.486;2022-09-09T04:18:10;19.20;;;10.35;;
53879;SDS011;39791;53.184;5.486;2022-09-09T04:20:36;16.20;;;11.82;;
53879;SDS011;39791;53.184;5.486;2022-09-09T04:23:02;20.00;;;11.88;;
53879;SDS011;39791;53.184;5.486;2022-09-09T04:25:28;19.75;;;12.85;;
53879;SDS011;39791;53.184;5.486;2022-09-09T04:27:54;26.58;;;14.02;;
53879;SDS011;39791;53.184;5.486;2022-09-09T04:30:21;20.00;;;12.05;;
53879;SDS011;39791;53.184;5.486;2022-09-09T04:32:47;18.33;;;11.80;;
53879;SDS011;39791;53.184;5.486;2022-09-09T04:35:12;14.38;;;11.43;;
53879;SDS011;39791;53.184;5.486;2022-09-09T04:37:38;17.88;;;12.02;;
53879;SDS011;39791;53.184;5.486;2022-09-09T04:40:04;20.05;;;11.90;;
53879;SDS011;39791;53.184;5.486;2022-09-09T04:42:34;15.88;;;10.73;;
53879;SDS011;39791;53.184;5.486;2022-09-09T04:45:03;21.60;;;12.07;;
53879;SDS011;39791;53.184;5.486;2022-09-09T04:47:30;16.38;;;10.05;;
53879;SDS011;39791;53.184;5.486;2022-09-09T04:49:56;15.68;;;9.57;;
53879;SDS011;39791;53.184;5.486;2022-09-09T04:52:22;17.20;;;8.43;;
53879;SDS011;39791;53.184;5.486;2022-09-09T04:54:47;11.57;;;7.97;;
53879;SDS011;39791;53.184;5.486;2022-09-09T04:57:13;15.25;;;7.82;;
53879;SDS011;39791;53.184;5.486;2022-09-09T04:59:39;15.13;;;8.00;;
53879;SDS011;39791;53.184;5.486;2022-09-09T05:02:04;12.98;;;7.68;;
53879;SDS011;39791;53.184;5.486;2022-09-09T05:04:30;15.30;;;7.32;;
53879;SDS011;39791;53.184;5.486;2022-09-09T05:06:56;16.23;;;7.35;;
53879;SDS011;39791;53.184;5.486;2022-09-09T05:09:21;11.85;;;6.93;;
53879;SDS011;39791;53.184;5.486;2022-09-09T05:11:47;8.23;;;5.97;;
53879;SDS011;39791;53.184;5.486;2022-09-09T05:14:13;12.15;;;6.50;;
53879;SDS011;39791;53.184;5.486;2022-09-09T05:16:39;11.45;;;6.35;;
53879;SDS011;39791;53.184;5.486;2022-09-09T05:19:05;9.80;;;7.57;;
53879;SDS011;39791;53.184;5.486;2022-09-09T05:21:33;12.13;;;6.63;;
53879;SDS011;39791;53.184;5.486;2022-09-09T05:23:58;10.57;;;7.07;;
53879;SDS011;39791;53.184;5.486;2022-09-09T05:26:25;10.52;;;7.00;;
53879;SDS011;39791;53.184;5.486;2022-09-09T05:28:51;10.73;;;6.70;;
53879;SDS011;39791;53.184;5.486;2022-09-09T05:31:17;9.40;;;6.13;;
53879;SDS011;39791;53.184;5.486;2022-09-09T05:33:44;17.73;;;7.20;;
53879;SDS011;39791;53.184;5.486;2022-09-09T05:36:14;11.68;;;6.63;;
53879;SDS011;39791;53.184;5.486;2022-09-09T05:38:42;9.45;;;6.80;;
53879;SDS011;39791;53.184;5.486;2022-09-09T05:41:08;11.25;;;6.22;;
53879;SDS011;39791;53.184;5.486;2022-09-09T05:43:36;10.35;;;6.38;;
53879;SDS011;39791;53.184;5.486;2022-09-09T05:46:06;11.15;;;6.35;;
53879;SDS011;39791;53.184;5.486;2022-09-09T05:48:37;9.52;;;6.38;;
53879;SDS011;39791;53.184;5.486;2022-09-09T05:51:05;13.77;;;7.60;;
53879;SDS011;39791;53.184;5.486;2022-09-09T05:53:33;14.13;;;7.25;;
53879;SDS011;39791;53.184;5.486;2022-09-09T05:56:03;13.07;;;7.15;;
53879;SDS011;39791;53.184;5.486;2022-09-09T05:58:33;14.93;;;9.52;;
53879;SDS011;39791;53.184;5.486;2022-09-09T06:01:03;16.60;;;9.07;;
53879;SDS011;39791;53.184;5.486;2022-09-09T06:03:37;13.85;;;8.48;;
53879;SDS011;39791;53.184;5.486;2022-09-09T06:06:05;14.73;;;8.10;;
53879;SDS011;39791;53.184;5.486;2022-09-09T06:08:32;18.83;;;9.65;;
53879;SDS011;39791;53.184;5.486;2022-09-09T06:11:06;12.63;;;9.25;;
53879;SDS011;39791;53.184;5.486;2022-09-09T06:13:34;13.50;;;9.23;;
53879;SDS011;39791;53.184;5.486;2022-09-09T06:16:00;13.25;;;8.85;;
53879;SDS011;39791;53.184;5.486;2022-09-09T06:18:26;13.60;;;9.30;;
53879;SDS011;39791;53.184;5.486;2022-09-09T06:20:55;15.32;;;10.02;;
53879;SDS011;39791;53.184;5.486;2022-09-09T06:23:29;13.40;;;10.32;;
53879;SDS011;39791;53.184;5.486;2022-09-09T06:26:05;13.68;;;10.20;;
53879;SDS011;39791;53.184;5.486;2022-09-09T06:30:58;13.23;;;10.02;;
53879;SDS011;39791;53.184;5.486;2022-09-09T06:33:35;16.98;;;9.50;;
53879;SDS011;39791;53.184;5.486;2022-09-09T06:36:06;15.20;;;10.27;;
53879;SDS011;39791;53.184;5.486;2022-09-09T06:38:37;19.40;;;10.30;;
53879;SDS011;39791;53.184;5.486;2022-09-09T06:41:02;15.25;;;8.93;;
53879;SDS011;39791;53.184;5.486;2022-09-09T06:43:29;12.25;;;9.85;;
53879;SDS011;39791;53.184;5.486;2022-09-09T06:45:56;13.40;;;8.98;;
53879;SDS011;39791;53.184;5.486;2022-09-09T06:48:23;12.68;;;9.23;;
53879;SDS011;39791;53.184;5.486;2022-09-09T06:50:50;12.43;;;8.63;;
53879;SDS011;39791;53.184;5.486;2022-09-09T06:53:24;14.13;;;9.07;;
53879;SDS011;39791;53.184;5.486;2022-09-09T06:55:51;15.95;;;9.63;;
53879;SDS011;39791;53.184;5.486;2022-09-09T06:58:16;11.63;;;8.30;;
53879;SDS011;39791;53.184;5.486;2022-09-09T07:00:42;11.80;;;9.57;;
53879;SDS011;39791;53.184;5.486;2022-09-09T07:03:07;13.90;;;8.73;;
53879;SDS011;39791;53.184;5.486;2022-09-09T07:05:35;14.90;;;9.35;;
53879;SDS011;39791;53.184;5.486;2022-09-09T07:08:01;12.05;;;8.80;;
53879;SDS011;39791;53.184;5.486;2022-09-09T07:10:27;14.88;;;9.38;;
53879;SDS011;39791;53.184;5.486;2022-09-09T07:12:52;15.98;;;8.30;;
53879;SDS011;39791;53.184;5.486;2022-09-09T07:15:18;13.45;;;7.30;;
53879;SDS011;39791;53.184;5.486;2022-09-09T07:17:44;9.82;;;7.68;;
53879;SDS011;39791;53.184;5.486;2022-09-09T07:20:10;15.23;;;7.93;;
53879;SDS011;39791;53.184;5.486;2022-09-09T07:22:36;10.02;;;7.38;;
53879;SDS011;39791;53.184;5.486;2022-09-09T07:25:02;11.80;;;6.72;;
53879;SDS011;39791;53.184;5.486;2022-09-09T07:27:28;9.75;;;7.05;;
53879;SDS011;39791;53.184;5.486;2022-09-09T07:29:55;11.57;;;6.90;;
53879;SDS011;39791;53.184;5.486;2022-09-09T07:32:20;12.93;;;7.50;;
53879;SDS011;39791;53.184;5.486;2022-09-09T07:34:46;10.50;;;6.43;;
53879;SDS011;39791;53.184;5.486;2022-09-09T07:37:12;12.85;;;6.68;;
53879;SDS011;39791;53.184;5.486;2022-09-09T07:39:38;9.77;;;6.65;;
53879;SDS011;39791;53.184;5.486;2022-09-09T07:42:05;8.73;;;6.32;;
53879;SDS011;39791;53.184;5.486;2022-09-09T07:44:30;9.52;;;5.90;;
53879;SDS011;39791;53.184;5.486;2022-09-09T07:46:59;13.77;;;6.88;;
53879;SDS011;39791;53.184;5.486;2022-09-09T07:49:26;8.10;;;5.57;;
53879;SDS011;39791;53.184;5.486;2022-09-09T07:51:51;10.02;;;5.68;;
53879;SDS011;39791;53.184;5.486;2022-09-09T07:54:17;6.97;;;5.45;;
53879;SDS011;39791;53.184;5.486;2022-09-09T07:56:48;7.90;;;5.15;;
53879;SDS011;39791;53.184;5.486;2022-09-09T07:59:15;9.77;;;5.45;;
53879;SDS011;39791;53.184;5.486;2022-09-09T08:01:42;6.22;;;5.25;;
53879;SDS011;39791;53.184;5.486;2022-09-09T08:04:11;10.70;;;5.10;;
53879;SDS011;39791;53.184;5.486;2022-09-09T08:06:52;8.77;;;5.15;;
53879;SDS011;39791;53.184;5.486;2022-09-09T08:09:19;9.95;;;5.30;;
53879;SDS011;39791;53.184;5.486;2022-09-09T08:11:45;10.77;;;6.18;;
53879;SDS011;39791;53.184;5.486;2022-09-09T08:14:12;13.50;;;5.30;;
53879;SDS011;39791;53.184;5.486;2022-09-09T08:16:39;9.93;;;5.70;;
53879;SDS011;39791;53.184;5.486;2022-09-09T08:19:06;13.68;;;5.28;;
53879;SDS011;39791;53.184;5.486;2022-09-09T08:21:33;11.00;;;5.50;;
53879;SDS011;39791;53.184;5.486;2022-09-09T08:24:02;11.35;;;5.05;;
53879;SDS011;39791;53.184;5.486;2022-09-09T08:26:29;10.30;;;5.57;;
53879;SDS011;39791;53.184;5.486;2022-09-09T08:28:57;6.30;;;4.47;;
53879;SDS011;39791;53.184;5.486;2022-09-09T08:31:25;8.45;;;4.05;;
53879;SDS011;39791;53.184;5.486;2022-09-09T08:33:52;7.93;;;4.20;;
53879;SDS011;39791;53.184;5.486;2022-09-09T08:36:20;4.60;;;3.45;;
53879;SDS011;39791;53.184;5.486;2022-09-09T08:38:51;10.25;;;4.50;;
53879;SDS011;39791;53.184;5.486;2022-09-09T08:44:03;10.77;;;4.70;;
53879;SDS011;39791;53.184;5.486;2022-09-09T08:55:25;6.00;;;3.33;;
53879;SDS011;39791;53.184;5.486;2022-09-09T08:57:56;7.80;;;4.45;;
53879;SDS011;39791;53.184;5.486;2022-09-09T09:00:28;10.02;;;3.85;;
53879;SDS011;39791;53.184;5.486;2022-09-09T09:03:05;9.07;;;4.47;;
53879;SDS011;39791;53.184;5.486;2022-09-09T09:08:31;6.97;;;4.57;;
53879;SDS011;39791;53.184;5.486;2022-09-09T09:11:03;9.15;;;3.80;;
53879;SDS011;39791;53.184;5.486;2022-09-09T09:13:42;13.02;;;4.40;;
53879;SDS011;39791;53.184;5.486;2022-09-09T09:16:23;7.13;;;4.28;;
53879;SDS011;39791;53.184;5.486;2022-09-09T09:18:54;17.10;;;4.35;;
53879;SDS011;39791;53.184;5.486;2022-09-09T09:21:34;14.80;;;4.50;;
53879;SDS011;39791;53.184;5.486;2022-09-09T09:24:19;9.57;;;3.47;;
53879;SDS011;39791;53.184;5.486;2022-09-09T09:26:48;15.07;;;3.50;;
53879;SDS011;39791;53.184;5.486;2022-09-09T09:29:15;9.23;;;3.35;;
53879;SDS011;39791;53.184;5.486;2022-09-09T09:31:44;8.18;;;3.60;;
53879;SDS011;39791;53.184;5.486;2022-09-09T09:34:14;4.72;;;2.63;;
53879;SDS011;39791;53.184;5.486;2022-09-09T09:39:08;7.85;;;3.13;;
53879;SDS011;39791;53.184;5.486;2022-09-09T09:41:38;7.53;;;2.40;;
53879;SDS011;39791;53.184;5.486;2022-09-09T09:44:28;7.35;;;3.03;;
53879;SDS011;39791;53.184;5.486;2022-09-09T09:47:18;12.13;;;3.47;;
53879;SDS011;39791;53.184;5.486;2022-09-09T09:49:53;10.02;;;2.88;;
53879;SDS011;39791;53.184;5.486;2022-09-09T09:52:23;9.63;;;2.92;;
53879;SDS011;39791;53.184;5.486;2022-09-09T09:54:54;5.72;;;2.47;;
53879;SDS011;39791;53.184;5.486;2022-09-09T09:57:23;10.80;;;2.50;;
53879;SDS011;39791;53.184;5.486;2022-09-09T10:00:12;4.38;;;2.15;;
53879;SDS011;39791;53.184;5.486;2022-09-09T10:02:43;12.20;;;3.08;;
53879;SDS011;39791;53.184;5.486;2022-09-09T10:05:17;4.28;;;2.03;;
53879;SDS011;39791;53.184;5.486;2022-09-09T10:07:47;8.02;;;2.55;;
53879;SDS011;39791;53.184;5.486;2022-09-09T10:10:26;4.88;;;1.70;;
53879;SDS011;39791;53.184;5.486;2022-09-09T10:13:15;7.15;;;2.42;;
53879;SDS011;39791;53.184;5.486;2022-09-09T10:16:09;6.50;;;2.03;;
53879;SDS011;39791;53.184;5.486;2022-09-09T10:18:58;11.60;;;2.20;;
53879;SDS011;39791;53.184;5.486;2022-09-09T10:24:22;6.78;;;1.95;;
53879;SDS011;39791;53.184;5.486;2022-09-09T10:27:03;5.50;;;1.90;;
53879;SDS011;39791;53.184;5.486;2022-09-09T10:35:27;3.72;;;1.58;;
53879;SDS011;39791;53.184;5.486;2022-09-09T10:52:20;5.03;;;1.90;;
53879;SDS011;39791;53.184;5.486;2022-09-09T10:55:23;6.25;;;1.60;;
53879;SDS011;39791;53.184;5.486;2022-09-09T10:57:51;6.32;;;2.08;;
53879;SDS011;39791;53.184;5.486;2022-09-09T11:00:22;5.70;;;1.90;;
53879;SDS011;39791;53.184;5.486;2022-09-09T11:02:55;6.68;;;1.83;;
53879;SDS011;39791;53.184;5.486;2022-09-09T11:05:36;6.85;;;2.00;;
53879;SDS011;39791;53.184;5.486;2022-09-09T11:08:12;6.55;;;1.70;;
53879;SDS011;39791;53.184;5.486;2022-09-09T11:10:52;7.82;;;1.67;;
53879;SDS011;39791;53.184;5.486;2022-09-09T11:16:41;6.63;;;2.10;;
53879;SDS011;39791;53.184;5.486;2022-09-09T11:19:26;8.27;;;2.30;;
53879;SDS011;39791;53.184;5.486;2022-09-09T11:21:59;5.28;;;2.10;;
53879;SDS011;39791;53.184;5.486;2022-09-09T11:24:33;6.85;;;2.20;;
53879;SDS011;39791;53.184;5.486;2022-09-09T11:27:27;10.77;;;2.58;;
53879;SDS011;39791;53.184;5.486;2022-09-09T11:41:01;7.55;;;2.17;;
53879;SDS011;39791;53.184;5.486;2022-09-09T11:43:31;9.50;;;2.28;;
53879;SDS011;39791;53.184;5.486;2022-09-09T11:46:03;9.48;;;2.33;;
53879;SDS011;39791;53.184;5.486;2022-09-09T11:48:31;6.07;;;1.60;;
53879;SDS011;39791;53.184;5.486;2022-09-09T11:51:06;7.90;;;2.05;;
53879;SDS011;39791;53.184;5.486;2022-09-09T11:53:35;9.07;;;2.45;;
53879;SDS011;39791;53.184;5.486;2022-09-09T11:56:12;7.55;;;2.40;;
53879;SDS011;39791;53.184;5.486;2022-09-09T11:58:40;8.55;;;2.13;;
53879;SDS011;39791;53.184;5.486;2022-09-09T12:01:15;8.82;;;2.40;;
53879;SDS011;39791;53.184;5.486;2022-09-09T12:03:55;4.95;;;1.80;;
53879;SDS011;39791;53.184;5.486;2022-09-09T12:06:30;6.28;;;2.08;;
53879;SDS011;39791;53.184;5.486;2022-09-09T12:09:15;10.38;;;2.65;;
53879;SDS011;39791;53.184;5.486;2022-09-09T12:12:04;9.40;;;2.60;;
53879;SDS011;39791;53.184;5.486;2022-09-09T12:14:35;8.93;;;2.13;;
53879;SDS011;39791;53.184;5.486;2022-09-09T12:17:21;7.50;;;2.35;;
53879;SDS011;39791;53.184;5.486;2022-09-09T12:25:26;6.60;;;2.28;;
53879;SDS011;39791;53.184;5.486;2022-09-09T12:30:58;4.97;;;2.22;;
53879;SDS011;39791;53.184;5.486;2022-09-09T12:33:36;5.72;;;2.33;;
53879;SDS011;39791;53.184;5.486;2022-09-09T12:36:09;8.55;;;2.42;;
53879;SDS011;39791;53.184;5.486;2022-09-09T12:38:40;5.60;;;2.15;;
53879;SDS011;39791;53.184;5.486;2022-09-09T12:41:17;9.73;;;3.20;;
53879;SDS011;39791;53.184;5.486;2022-09-09T12:43:47;5.75;;;2.45;;
53879;SDS011;39791;53.184;5.486;2022-09-09T12:46:20;12.55;;;3.15;;
53879;SDS011;39791;53.184;5.486;2022-09-09T12:48:56;7.50;;;2.25;;
53879;SDS011;39791;53.184;5.486;2022-09-09T12:51:27;7.32;;;2.40;;
53879;SDS011;39791;53.184;5.486;2022-09-09T12:53:55;10.52;;;2.42;;
53879;SDS011;39791;53.184;5.486;2022-09-09T12:56:22;9.68;;;2.72;;
53879;SDS011;39791;53.184;5.486;2022-09-09T12:58:51;9.32;;;2.70;;
53879;SDS011;39791;53.184;5.486;2022-09-09T13:01:20;11.23;;;2.80;;
53879;SDS011;39791;53.184;5.486;2022-09-09T13:03:50;12.55;;;2.92;;
53879;SDS011;39791;53.184;5.486;2022-09-09T13:06:24;12.02;;;2.72;;
53879;SDS011;39791;53.184;5.486;2022-09-09T13:08:52;9.30;;;3.00;;
53879;SDS011;39791;53.184;5.486;2022-09-09T13:11:24;13.57;;;2.97;;
53879;SDS011;39791;53.184;5.486;2022-09-09T13:13:56;6.95;;;2.10;;
53879;SDS011;39791;53.184;5.486;2022-09-09T13:16:23;5.90;;;1.95;;
53879;SDS011;39791;53.184;5.486;2022-09-09T13:18:56;10.13;;;2.25;;
53879;SDS011;39791;53.184;5.486;2022-09-09T13:21:41;5.45;;;2.28;;
53879;SDS011;39791;53.184;5.486;2022-09-09T13:24:25;8.57;;;2.20;;
53879;SDS011;39791;53.184;5.486;2022-09-09T13:27:03;7.35;;;2.03;;
53879;SDS011;39791;53.184;5.486;2022-09-09T13:29:52;6.18;;;1.95;;
53879;SDS011;39791;53.184;5.486;2022-09-09T13:32:22;3.95;;;1.85;;
53879;SDS011;39791;53.184;5.486;2022-09-09T13:34:56;7.75;;;2.30;;
53879;SDS011;39791;53.184;5.486;2022-09-09T13:37:24;4.03;;;1.55;;
53879;SDS011;39791;53.184;5.486;2022-09-09T13:39:59;3.72;;;1.55;;
53879;SDS011;39791;53.184;5.486;2022-09-09T13:42:27;4.70;;;1.95;;
53879;SDS011;39791;53.184;5.486;2022-09-09T13:44:56;4.60;;;1.90;;
53879;SDS011;39791;53.184;5.486;2022-09-09T13:47:34;3.92;;;1.83;;
53879;SDS011;39791;53.184;5.486;2022-09-09T13:50:18;6.85;;;2.67;;
53879;SDS011;39791;53.184;5.486;2022-09-09T13:52:44;4.93;;;2.05;;
53879;SDS011;39791;53.184;5.486;2022-09-09T13:55:10;6.38;;;2.40;;
53879;SDS011;39791;53.184;5.486;2022-09-09T13:57:36;5.47;;;2.08;;
53879;SDS011;39791;53.184;5.486;2022-09-09T14:00:01;5.32;;;1.98;;
53879;SDS011;39791;53.184;5.486;2022-09-09T14:02:28;5.40;;;1.88;;
53879;SDS011;39791;53.184;5.486;2022-09-09T14:04:53;10.50;;;1.83;;
53879;SDS011;39791;53.184;5.486;2022-09-09T14:07:20;6.60;;;2.10;;
53879;SDS011;39791;53.184;5.486;2022-09-09T14:09:46;6.35;;;2.05;;
53879;SDS011;39791;53.184;5.486;2022-09-09T14:12:15;6.05;;;2.00;;
53879;SDS011;39791;53.184;5.486;2022-09-09T14:14:41;5.93;;;2.08;;
53879;SDS011;39791;53.184;5.486;2022-09-09T14:17:07;7.88;;;2.30;;
53879;SDS011;39791;53.184;5.486;2022-09-09T14:19:33;3.63;;;1.60;;
53879;SDS011;39791;53.184;5.486;2022-09-09T14:21:59;6.90;;;1.73;;
53879;SDS011;39791;53.184;5.486;2022-09-09T14:24:26;6.20;;;1.75;;
53879;SDS011;39791;53.184;5.486;2022-09-09T14:26:52;3.22;;;1.70;;
53879;SDS011;39791;53.184;5.486;2022-09-09T14:29:18;8.40;;;2.25;;
53879;SDS011;39791;53.184;5.486;2022-09-09T14:31:44;5.30;;;1.98;;
53879;SDS011;39791;53.184;5.486;2022-09-09T14:34:09;7.68;;;2.10;;
53879;SDS011;39791;53.184;5.486;2022-09-09T14:36:35;6.72;;;1.90;;
53879;SDS011;39791;53.184;5.486;2022-09-09T14:39:02;4.43;;;1.95;;
53879;SDS011;39791;53.184;5.486;2022-09-09T14:41:28;6.68;;;1.40;;
53879;SDS011;39791;53.184;5.486;2022-09-09T14:43:55;3.10;;;1.40;;
53879;SDS011;39791;53.184;5.486;2022-09-09T14:46:21;7.30;;;1.42;;
53879;SDS011;39791;53.184;5.486;2022-09-09T14:48:47;3.53;;;1.65;;
53879;SDS011;39791;53.184;5.486;2022-09-09T14:51:17;5.88;;;1.58;;
53879;SDS011;39791;53.184;5.486;2022-09-09T14:53:47;9.82;;;2.70;;
53879;SDS011;39791;53.184;5.486;2022-09-09T14:56:23;5.28;;;2.17;;
53879;SDS011;39791;53.184;5.486;2022-09-09T14:58:52;9.45;;;2.40;;
53879;SDS011;39791;53.184;5.486;2022-09-09T15:01:20;6.93;;;2.83;;
53879;SDS011;39791;53.184;5.486;2022-09-09T15:03:50;7.03;;;3.03;;
53879;SDS011;39791;53.184;5.486;2022-09-09T15:06:18;5.68;;;2.40;;
53879;SDS011;39791;53.184;5.486;2022-09-09T15:08:45;5.68;;;2.95;;
53879;SDS011;39791;53.184;5.486;2022-09-09T15:11:12;5.63;;;3.08;;
53879;SDS011;39791;53.184;5.486;2022-09-09T15:13:39;4.97;;;2.80;;
53879;SDS011;39791;53.184;5.486;2022-09-09T15:16:07;5.82;;;2.75;;
53879;SDS011;39791;53.184;5.486;2022-09-09T15:18:37;5.85;;;2.25;;
53879;SDS011;39791;53.184;5.486;2022-09-09T15:21:08;3.55;;;2.15;;
53879;SDS011;39791;53.184;5.486;2022-09-09T15:23:35;5.93;;;2.28;;
53879;SDS011;39791;53.184;5.486;2022-09-09T15:26:01;5.35;;;2.08;;
53879;SDS011;39791;53.184;5.486;2022-09-09T15:28:28;5.53;;;2.17;;
53879;SDS011;39791;53.184;5.486;2022-09-09T15:30:54;5.05;;;2.13;;
53879;SDS011;39791;53.184;5.486;2022-09-09T15:33:21;5.70;;;2.35;;
53879;SDS011;39791;53.184;5.486;2022-09-09T15:35:47;4.90;;;2.25;;
53879;SDS011;39791;53.184;5.486;2022-09-09T15:38:15;6.07;;;2.40;;
53879;SDS011;39791;53.184;5.486;2022-09-09T15:40:41;5.90;;;2.60;;
53879;SDS011;39791;53.184;5.486;2022-09-09T15:43:08;4.65;;;2.42;;
53879;SDS011;39791;53.184;5.486;2022-09-09T15:45:35;6.72;;;2.67;;
53879;SDS011;39791;53.184;5.486;2022-09-09T15:48:02;6.57;;;2.42;;
53879;SDS011;39791;53.184;5.486;2022-09-09T15:50:29;5.72;;;2.60;;
53879;SDS011;39791;53.184;5.486;2022-09-09T15:52:58;6.20;;;2.60;;
53879;SDS011;39791;53.184;5.486;2022-09-09T15:55:24;4.65;;;2.80;;
53879;SDS011;39791;53.184;5.486;2022-09-09T15:57:50;6.40;;;2.40;;
53879;SDS011;39791;53.184;5.486;2022-09-09T16:00:17;7.63;;;2.40;;
53879;SDS011;39791;53.184;5.486;2022-09-09T16:02:44;7.50;;;1.52;;
53879;SDS011;39791;53.184;5.486;2022-09-09T16:05:11;6.47;;;1.50;;
53879;SDS011;39791;53.184;5.486;2022-09-09T16:07:37;4.00;;;1.45;;
53879;SDS011;39791;53.184;5.486;2022-09-09T16:10:03;5.28;;;1.75;;
53879;SDS011;39791;53.184;5.486;2022-09-09T16:12:28;4.78;;;1.60;;
53879;SDS011;39791;53.184;5.486;2022-09-09T16:14:54;2.53;;;1.50;;
53879;SDS011;39791;53.184;5.486;2022-09-09T16:17:19;4.03;;;1.42;;
53879;SDS011;39791;53.184;5.486;2022-09-09T16:19:46;2.95;;;1.50;;
53879;SDS011;39791;53.184;5.486;2022-09-09T16:22:11;4.60;;;1.55;;
53879;SDS011;39791;53.184;5.486;2022-09-09T16:24:40;3.33;;;1.67;;
53879;SDS011;39791;53.184;5.486;2022-09-09T16:27:05;4.75;;;1.65;;
53879;SDS011;39791;53.184;5.486;2022-09-09T16:29:31;4.88;;;1.77;;
53879;SDS011;39791;53.184;5.486;2022-09-09T16:31:57;3.13;;;1.85;;
53879;SDS011;39791;53.184;5.486;2022-09-09T16:34:23;4.07;;;1.77;;